Time;durP1;ratioP1;P1;durP2;ratioP2;P2;SDS_P1;SDS_P2;PMS_P1;PMS_P2;Temp;Humidity;BMP_temperature;BMP_pressure;BME280_temperature;BME280_humidity;BME280_pressure;Samples;Min_cycle;Max_cycle;Signal;HPM_P1;HPM_P2
2021/12/14 00:01:37;;;;;;;233.10;103.50;;;;;;;-1.66;84.16;99494.44;103346;1323;25409;-84
2021/12/14 00:04:17;;;;;;;252.60;110.50;;;;;;;-1.74;83.87;99498.37;103197;1323;139122;-82
2021/12/14 00:06:48;;;;;;;;;;;;;;;-1.84;84.11;99498.38;103520;1323;23343;-84
2021/12/14 00:09:28;;;;;;;237.80;99.80;;;;;;;-1.86;84.34;99502.48;103516;1324;22731;-84
2021/12/14 00:15:04;;;;;;;235.80;98.50;;;;;;;-1.88;84.64;99506.08;103362;1319;22604;-83
2021/12/14 00:17:50;;;;;;;234.40;99.90;;;;;;;-1.89;84.94;99504.94;103297;1319;138030;-84
2021/12/14 00:20:38;;;;;;;211.60;93.50;;;;;;;-1.89;84.95;99504.04;103726;1319;22726;-83
2021/12/14 00:25:48;;;;;;;206.80;88.90;;;;;;;-1.93;84.92;99500.42;103457;1319;23352;-83
2021/12/14 00:28:26;;;;;;;211.70;91.80;;;;;;;-1.91;85.12;99502.39;103192;1320;138163;-84
2021/12/14 00:31:27;;;;;;;221.40;96.30;;;;;;;-1.91;84.98;99504.21;103564;1316;22659;-84
2021/12/14 00:34:00;;;;;;;238.90;102.80;;;;;;;-1.95;84.86;99504.00;103436;1321;138178;-84
2021/12/14 00:36:28;;;;;;;215.80;97.80;;;;;;;-1.94;85.02;99505.70;103323;1321;22711;-84
2021/12/14 00:38:57;;;;;;;235.30;102.00;;;;;;;-1.94;84.69;99501.23;103683;1322;24370;-84
2021/12/14 00:41:30;;;;;;;233.00;102.30;;;;;;;-1.93;84.82;99500.23;103684;1319;138072;-84
2021/12/14 00:44:11;;;;;;;225.50;100.70;;;;;;;-1.90;84.92;99503.92;103595;1320;25373;-84
2021/12/14 00:46:40;;;;;;;231.20;100.90;;;;;;;-1.92;84.67;99503.05;103600;1319;138031;-84
2021/12/14 00:49:12;;;;;;;237.60;100.30;;;;;;;-1.96;84.38;99504.27;103921;1319;22614;-84
2021/12/14 00:51:39;;;;;;;228.10;99.20;;;;;;;-1.98;84.62;99499.73;103594;1325;24243;-83
2021/12/14 00:54:11;;;;;;;220.10;99.70;;;;;;;-1.99;84.61;99502.41;104041;1321;138955;-84
2021/12/14 00:56:41;;;;;;;217.50;97.00;;;;;;;-1.99;84.46;99507.36;103631;1321;22577;-84
2021/12/14 00:59:12;;;;;;;221.90;102.00;;;;;;;-2.01;84.23;99502.07;103358;1319;138065;-84
2021/12/14 01:01:45;;;;;;;230.30;100.20;;;;;;;-2.02;84.26;99499.14;103601;1318;23933;-83
2021/12/14 01:04:16;;;;;;;222.00;101.40;;;;;;;-2.06;84.27;99499.35;103542;1320;138307;-84
2021/12/14 01:06:46;;;;;;;224.30;100.40;;;;;;;-2.13;84.12;99502.59;103944;1318;24369;-84
2021/12/14 01:09:37;;;;;;;225.30;99.90;;;;;;;-2.17;84.03;99504.01;104206;1321;24778;-84
2021/12/14 01:12:12;;;;;;;223.90;100.90;;;;;;;-2.21;84.00;99502.79;103615;1316;138852;-84
2021/12/14 01:20:39;;;;;;;229.40;97.10;;;;;;;-2.22;84.52;99495.94;103602;1323;25518;-85
2021/12/14 01:23:15;;;;;;;217.00;92.90;;;;;;;-2.25;84.39;99491.07;103437;1320;138041;-84
2021/12/14 01:25:50;;;;;;;223.10;92.90;;;;;;;-2.29;84.48;99492.80;103572;1323;23424;-84
2021/12/14 01:28:25;;;;;;;204.80;92.10;;;;;;;-2.30;84.33;99492.58;103299;1326;139113;-83
2021/12/14 01:31:27;;;;;;;213.70;94.30;;;;;;;-2.28;84.46;99493.11;103543;1322;22586;-84
2021/12/14 01:34:02;;;;;;;205.40;89.10;;;;;;;-2.27;84.47;99490.89;103592;1320;139145;-84
2021/12/14 01:36:41;;;;;;;210.30;91.80;;;;;;;-2.30;84.12;99483.64;103944;1322;22774;-84
2021/12/14 01:42:02;;;;;;;216.30;92.60;;;;;;;-2.36;84.05;99490.27;103438;1318;138260;-84
2021/12/14 01:44:52;;;;;;;216.00;96.60;;;;;;;-2.40;84.20;99492.98;103728;1318;23932;-83
2021/12/14 01:47:34;;;;;;;201.90;94.00;;;;;;;-2.44;84.30;99495.44;103609;1318;138631;-84
2021/12/14 01:50:41;;;;;;;212.80;90.70;;;;;;;-2.44;84.39;99500.26;103683;1319;25597;-84
2021/12/14 01:53:14;;;;;;;223.70;96.50;;;;;;;-2.46;84.18;99500.79;103449;1316;137856;-84
2021/12/14 01:55:51;;;;;;;247.90;104.40;;;;;;;-2.48;84.26;99499.69;103411;1320;22587;-83
2021/12/14 01:58:23;;;;;;;255.10;109.90;;;;;;;-2.53;84.46;99501.34;103420;1323;138501;-83
2021/12/14 02:01:04;;;;;;;257.80;112.00;;;;;;;-2.59;84.63;99501.31;103764;1323;22581;-83
2021/12/14 02:03:39;;;;;;;251.20;107.90;;;;;;;-2.63;84.47;99502.42;103809;1318;24107;-83
2021/12/14 02:06:19;;;;;;;250.40;106.80;;;;;;;-2.64;84.75;99502.67;103372;1320;138372;-84
2021/12/14 02:08:53;;;;;;;242.40;100.80;;;;;;;-2.63;84.80;99500.98;103746;1319;22650;-83
2021/12/14 02:11:20;;;;;;;263.90;109.50;;;;;;;-2.66;84.73;99496.79;103494;1320;138195;-83
2021/12/14 02:13:52;;;;;;;263.30;109.10;;;;;;;-2.69;84.65;99495.25;103879;1322;22619;-84
2021/12/14 02:16:22;;;;;;;264.10;110.00;;;;;;;-2.68;85.15;99492.39;103272;1324;138175;-83
2021/12/14 02:18:55;;;;;;;251.90;109.50;;;;;;;-2.67;85.15;99487.98;103585;1324;23426;-84
2021/12/14 02:21:23;;;;;;;245.40;103.70;;;;;;;-2.63;85.54;99493.13;103602;1322;22620;-83
2021/12/14 02:23:53;;;;;;;243.80;103.00;;;;;;;-2.57;85.51;99488.34;103242;1325;138235;-83
2021/12/14 02:26:25;;;;;;;255.80;104.80;;;;;;;-2.49;85.78;99490.85;103553;1323;22638;-83
2021/12/14 02:29:10;;;;;;;242.90;102.50;;;;;;;-2.40;85.76;99494.38;103278;1322;138767;-83
2021/12/14 02:31:40;;;;;;;243.90;112.60;;;;;;;-2.38;85.74;99497.17;103543;1325;24734;-83
2021/12/14 02:34:10;;;;;;;246.40;111.40;;;;;;;-2.37;85.57;99497.05;103482;1322;139005;-83
2021/12/14 02:36:41;;;;;;;238.60;104.60;;;;;;;-2.33;86.05;99496.23;103830;1319;24073;-83
2021/12/14 02:39:24;;;;;;;242.70;102.80;;;;;;;-2.28;85.79;99501.80;103488;1325;24263;-83
2021/12/14 02:41:56;;;;;;;244.90;104.90;;;;;;;-2.21;85.90;99504.05;103261;1326;138162;-83
2021/12/14 02:44:23;;;;;;;241.20;100.90;;;;;;;-2.17;86.02;99505.75;103419;1322;22704;-84
2021/12/14 02:46:55;;;;;;;251.50;109.00;;;;;;;-2.15;85.76;99501.70;103461;1325;138151;-84
2021/12/14 02:49:27;;;;;;;233.90;103.00;;;;;;;-2.16;85.59;99504.85;103553;1326;22617;-84
2021/12/14 02:52:01;;;;;;;245.30;103.70;;;;;;;-2.16;85.54;99505.04;103587;1319;138858;-84
2021/12/14 02:54:50;;;;;;;234.90;97.20;;;;;;;-2.12;86.12;99502.14;103485;1322;22763;-84
2021/12/14 02:57:25;;;;;;;245.00;104.70;;;;;;;-2.12;85.49;99500.02;103865;1319;23040;-84
2021/12/14 02:59:55;;;;;;;246.70;104.70;;;;;;;-2.18;85.36;99501.25;103419;1320;138207;-84
2021/12/14 03:02:33;;;;;;;245.80;106.90;;;;;;;-2.23;85.52;99500.30;103675;1319;22603;-84
2021/12/14 03:05:07;;;;;;;269.00;114.90;;;;;;;-2.26;85.57;99501.35;103590;1325;138540;-84
2021/12/14 03:07:46;;;;;;;253.30;110.90;;;;;;;-2.24;85.82;99504.69;103379;1325;25262;-84
2021/12/14 03:13:12;;;;;;;223.90;103.30;;;;;;;-2.16;85.81;99497.16;103210;1325;22583;-84
2021/12/14 03:15:50;;;;;;;256.50;108.20;;;;;;;-2.10;86.22;99492.20;103598;1325;22646;-84
2021/12/14 03:18:25;;;;;;;249.80;107.10;;;;;;;-2.02;86.22;99491.69;103784;1316;138173;-84
2021/12/14 03:21:07;;;;;;;263.00;115.40;;;;;;;-1.94;86.25;99500.02;103516;1322;22630;-83
2021/12/14 03:23:40;;;;;;;;;;;;;;;-1.89;85.98;99494.58;103710;1324;138809;-84
2021/12/14 03:26:11;;;;;;;251.90;105.60;;;;;;;-1.85;85.59;99491.96;103323;1326;22581;-83
2021/12/14 03:28:46;;;;;;;250.00;110.70;;;;;;;-1.81;85.80;99489.77;103958;1322;138234;-84
2021/12/14 03:31:36;;;;;;;253.20;106.00;;;;;;;-1.79;85.29;99490.66;103642;1319;22882;-84
2021/12/14 03:34:11;;;;;;;251.70;106.60;;;;;;;-1.78;85.63;99489.34;103317;1323;139036;-84
2021/12/14 03:36:47;;;;;;;243.00;105.00;;;;;;;-1.77;85.46;99491.71;103303;1325;24280;-84
2021/12/14 03:39:16;;;;;;;245.50;108.70;;;;;;;-1.77;85.56;99492.24;103459;1319;22574;-84
2021/12/14 03:41:47;;;;;;;236.90;106.30;;;;;;;-1.76;85.65;99494.67;103258;1326;138857;-84
2021/12/14 03:44:22;;;;;;;251.60;104.50;;;;;;;-1.75;85.17;99496.52;103289;1316;25424;-84
2021/12/14 03:46:58;;;;;;;243.50;103.50;;;;;;;-1.79;85.19;99496.39;102938;1324;138335;-84
2021/12/14 03:49:30;;;;;;;237.10;105.00;;;;;;;-1.83;85.27;99497.09;104156;1324;30348;-84
2021/12/14 03:52:16;;;;;;;250.70;107.40;;;;;;;-1.86;85.22;99493.77;103259;1325;138888;-84
2021/12/14 03:54:44;;;;;;;228.00;97.30;;;;;;;-1.88;85.11;99489.68;103608;1323;22587;-84
2021/12/14 03:57:12;;;;;;;285.20;129.70;;;;;;;-1.97;84.85;99490.46;103471;1323;22928;-84
2021/12/14 03:59:56;;;;;;;250.70;112.50;;;;;;;-2.05;85.14;99486.45;103418;1320;138988;-84
2021/12/14 04:02:24;;;;;;;236.40;104.60;;;;;;;-2.12;84.95;99490.77;103503;1325;24258;-83
2021/12/14 04:05:06;;;;;;;243.40;107.80;;;;;;;-2.19;85.29;99491.39;103301;1325;138501;-84
2021/12/14 04:07:35;;;;;;;245.60;103.90;;;;;;;-2.23;85.72;99487.99;103402;1319;196161;-84
2021/12/14 04:10:39;;;;;;;230.70;99.30;;;;;;;-2.23;86.02;99478.95;103643;1323;138380;-84
2021/12/14 04:13:08;;;;;;;236.10;100.70;;;;;;;-2.24;86.01;99476.36;103441;1324;25230;-84
2021/12/14 04:15:36;;;;;;;243.60;109.80;;;;;;;-2.27;86.07;99482.13;103802;1320;23355;-84
2021/12/14 04:18:03;;;;;;;241.70;109.30;;;;;;;-2.29;86.42;99476.66;103483;1316;138456;-84
2021/12/14 04:20:35;;;;;;;227.20;98.80;;;;;;;-2.29;86.68;99472.02;103319;1323;25404;-84
2021/12/14 04:23:13;;;;;;;229.80;98.20;;;;;;;-2.27;86.93;99471.64;103448;1324;138605;-84
2021/12/14 04:25:42;;;;;;;225.30;96.90;;;;;;;-2.22;86.96;99475.83;103595;1324;25370;-85
2021/12/14 04:28:13;;;;;;;228.20;99.50;;;;;;;-2.21;87.07;99477.89;103325;1324;138129;-85
2021/12/14 04:30:41;;;;;;;235.90;103.10;;;;;;;-2.23;86.87;99475.63;103619;1316;22917;-85
2021/12/14 04:33:12;;;;;;;245.00;109.80;;;;;;;-2.24;87.34;99473.19;103349;1322;22606;-85
2021/12/14 04:35:41;;;;;;;228.90;103.70;;;;;;;-2.22;87.22;99477.46;103151;1324;138973;-84
2021/12/14 04:38:17;;;;;;;233.20;101.80;;;;;;;-2.18;87.37;99476.91;103253;1326;24428;-84
2021/12/14 04:52:34;;;;;;;276.70;111.50;;;;;;;-1.95;88.59;99479.69;103161;1323;139219;-85
2021/12/14 04:55:10;;;;;;;271.10;109.00;;;;;;;-1.87;88.90;99480.20;103417;1319;22632;-85
2021/12/14 04:57:43;;;;;;;287.30;111.80;;;;;;;-1.75;89.01;99477.66;103694;1319;22594;-85
2021/12/14 05:00:34;;;;;;;292.20;112.90;;;;;;;-1.65;89.21;99476.42;103379;1323;138182;-85
2021/12/14 05:03:24;;;;;;;295.30;113.00;;;;;;;-1.58;88.85;99477.85;103507;1319;23910;-85
2021/12/14 05:06:08;;;;;;;297.10;106.50;;;;;;;-1.56;89.00;99477.12;103195;1325;138818;-85
2021/12/14 05:11:15;;;;;;;286.30;108.60;;;;;;;-1.46;89.41;99477.80;103271;1320;138356;-85
2021/12/14 05:13:54;;;;;;;256.30;98.90;;;;;;;-1.46;88.96;99479.47;103177;1322;22575;-85
2021/12/14 05:16:30;;;;;;;295.90;115.40;;;;;;;-1.50;89.11;99482.11;103309;1325;138383;-85
2021/12/14 05:19:02;;;;;;;308.80;115.90;;;;;;;-1.50;89.16;99481.23;103539;1326;25354;-85
2021/12/14 05:21:32;;;;;;;273.30;110.20;;;;;;;-1.48;89.03;99485.63;103489;1319;22572;-85
2021/12/14 05:24:02;;;;;;;271.20;112.00;;;;;;;-1.45;89.16;99487.17;103713;1323;138601;-85
2021/12/14 05:26:33;;;;;;;288.30;114.20;;;;;;;-1.40;89.59;99487.73;103434;1325;22748;-85
2021/12/14 05:29:02;;;;;;;304.20;114.40;;;;;;;-1.31;89.90;99485.91;103319;1323;138440;-85
2021/12/14 05:31:49;;;;;;;300.60;115.60;;;;;;;-1.25;89.61;99485.31;103435;1319;22770;-85
2021/12/14 05:34:17;;;;;;;300.40;115.40;;;;;;;-1.16;89.71;99485.05;103058;1322;139149;-85
2021/12/14 05:37:01;;;;;;;301.90;111.20;;;;;;;-1.07;89.67;99488.45;103674;1324;24221;-85
2021/12/14 05:45:21;;;;;;;307.20;114.10;;;;;;;-0.86;89.02;99497.73;103395;1320;22846;-85
2021/12/14 05:48:00;;;;;;;321.90;119.20;;;;;;;-0.80;89.01;99493.94;103575;1318;138516;-85
2021/12/14 05:50:41;;;;;;;300.70;114.80;;;;;;;-0.78;88.50;99486.95;103549;1319;22582;-85
2021/12/14 05:53:09;;;;;;;;;;;;;;;-0.75;88.61;99477.59;103347;1319;138588;-84
2021/12/14 05:55:40;;;;;;;286.50;108.00;;;;;;;-0.75;88.38;99469.41;103498;1321;26576;-85
2021/12/14 05:58:13;;;;;;;287.50;108.20;;;;;;;-0.77;87.97;99468.31;103186;1323;138288;-85
2021/12/14 06:01:01;;;;;;;291.50;109.90;;;;;;;-0.81;87.96;99462.95;103660;1322;22593;-85
2021/12/14 06:03:32;;;;;;;311.40;110.90;;;;;;;-0.84;87.74;99463.11;103529;1323;25240;-85
2021/12/14 06:06:02;;;;;;;297.50;107.90;;;;;;;-0.85;87.76;99468.21;103246;1322;139294;-85
2021/12/14 06:08:34;;;;;;;285.10;106.10;;;;;;;-0.85;88.02;99471.42;103404;1322;24210;-85
2021/12/14 06:11:37;;;;;;;283.80;105.10;;;;;;;-0.86;88.10;99475.89;103368;1323;138161;-85
2021/12/14 06:14:13;;;;;;;280.80;105.80;;;;;;;-0.86;88.20;99477.52;103245;1321;24152;-85
2021/12/14 06:16:41;;;;;;;292.60;111.90;;;;;;;-0.85;88.24;99478.16;103270;1322;138433;-85
2021/12/14 06:19:17;;;;;;;339.90;124.90;;;;;;;-0.83;88.16;99481.73;103196;1325;23364;-84
2021/12/14 06:21:50;;;;;;;311.10;120.00;;;;;;;-0.84;88.16;99475.92;103130;1323;22586;-84
2021/12/14 06:24:18;;;;;;;319.50;117.90;;;;;;;-0.81;88.12;99474.16;103239;1322;138318;-85
2021/12/14 06:26:51;;;;;;;339.00;123.30;;;;;;;-0.77;88.27;99475.80;103528;1322;22616;-85
2021/12/14 06:29:50;;;;;;;315.00;122.80;;;;;;;-0.74;88.23;99473.55;103468;1318;138915;-85
2021/12/14 06:32:46;;;;;;;319.70;117.30;;;;;;;-0.77;87.80;99468.84;103794;1320;23343;-85
2021/12/14 06:35:46;;;;;;;330.80;123.20;;;;;;;-0.84;87.71;99474.34;103603;1325;138563;-85
2021/12/14 06:38:34;;;;;;;340.90;119.20;;;;;;;-0.85;87.86;99471.02;103573;1319;30699;-85
2021/12/14 06:41:13;;;;;;;324.00;116.50;;;;;;;-0.88;87.32;99472.38;103248;1323;139319;-85
2021/12/14 06:43:58;;;;;;;344.80;118.90;;;;;;;-0.94;87.19;99476.34;103709;1320;22577;-85
2021/12/14 06:46:33;;;;;;;328.90;121.20;;;;;;;-1.00;87.47;99476.52;103551;1323;138660;-85
2021/12/14 06:49:09;;;;;;;367.00;127.30;;;;;;;-1.00;88.02;99474.95;103234;1322;22594;-85
2021/12/14 06:51:54;;;;;;;380.90;125.40;;;;;;;-1.00;87.73;99474.59;103351;1319;24385;-84
2021/12/14 06:54:30;;;;;;;354.00;114.10;;;;;;;-0.99;87.56;99479.88;103025;1319;138700;-84
2021/12/14 06:57:21;;;;;;;373.40;111.60;;;;;;;-1.00;87.35;99475.81;103321;1323;25270;-85
2021/12/14 06:59:56;;;;;;;365.60;118.80;;;;;;;-1.03;87.33;99476.64;103345;1325;138134;-85
2021/12/14 07:02:28;;;;;;;394.90;127.10;;;;;;;-1.02;87.68;99480.16;103351;1316;25270;-85
2021/12/14 07:05:00;;;;;;;391.60;130.20;;;;;;;-1.02;87.54;99480.61;103319;1325;138754;-85
2021/12/14 07:07:30;;;;;;;369.60;124.00;;;;;;;-1.01;87.38;99480.92;103604;1322;22986;-85
2021/12/14 07:10:01;;;;;;;347.70;121.30;;;;;;;-1.01;87.75;99477.73;103495;1320;22577;-85
2021/12/14 07:12:33;;;;;;;374.70;120.20;;;;;;;-1.00;87.46;99475.42;103452;1319;138788;-85
2021/12/14 07:15:39;;;;;;;357.70;116.90;;;;;;;-1.00;87.08;99471.71;103384;1322;22784;-85
2021/12/14 07:18:08;;;;;;;356.50;113.80;;;;;;;-1.04;86.91;99476.09;103101;1325;138580;-85
2021/12/14 07:20:45;;;;;;;393.40;115.80;;;;;;;-1.10;87.05;99474.48;103055;1322;24263;-85
2021/12/14 07:23:26;;;;;;;383.60;114.40;;;;;;;-1.10;86.99;99474.33;103311;1320;139048;-85
2021/12/14 07:25:58;;;;;;;388.80;108.20;;;;;;;-1.08;86.83;99475.23;103304;1325;22755;-84
2021/12/14 07:28:33;;;;;;;355.60;102.60;;;;;;;-1.10;86.71;99479.11;103454;1321;138159;-85
2021/12/14 07:31:19;;;;;;;;;;;;;;;-1.10;86.98;99476.95;103556;1324;22713;-84
2021/12/14 07:33:59;;;;;;;336.00;97.40;;;;;;;-1.09;87.31;99481.11;103317;1325;25338;-85
2021/12/14 07:36:32;;;;;;;341.10;98.20;;;;;;;-1.10;87.23;99480.31;103372;1324;138312;-84
2021/12/14 07:39:12;;;;;;;340.80;97.30;;;;;;;-1.12;86.55;99478.24;103433;1322;22575;-85
2021/12/14 07:41:46;;;;;;;329.60;98.10;;;;;;;-1.15;86.76;99476.52;103380;1324;138548;-84
2021/12/14 07:44:33;;;;;;;302.70;90.70;;;;;;;-1.18;86.91;99475.52;103198;1321;22614;-85
2021/12/14 07:47:05;;;;;;;305.50;93.60;;;;;;;-1.21;86.69;99480.46;103464;1324;138079;-85
2021/12/14 07:49:43;;;;;;;310.70;87.80;;;;;;;-1.25;86.96;99481.73;103528;1325;30212;-84
2021/12/14 07:52:14;;;;;;;309.00;90.20;;;;;;;-1.27;87.22;99483.38;103262;1323;139098;-84
2021/12/14 07:54:52;;;;;;;294.70;86.80;;;;;;;-1.27;87.30;99482.67;103599;1319;24245;-85
2021/12/14 07:57:25;;;;;;;268.90;82.90;;;;;;;-1.24;87.56;99487.84;103632;1318;24279;-85
2021/12/14 08:00:01;;;;;;;251.50;78.10;;;;;;;-1.19;87.92;99492.19;103568;1322;138669;-86
2021/12/14 08:02:46;;;;;;;222.80;71.80;;;;;;;-1.08;88.31;99492.80;103530;1322;22584;-86
2021/12/14 08:05:17;;;;;;;245.70;76.60;;;;;;;-1.02;88.38;99493.34;103234;1325;138676;-85
2021/12/14 08:08:00;;;;;;;285.90;82.40;;;;;;;-0.91;88.77;99497.61;103534;1321;24270;-84
2021/12/14 08:10:37;;;;;;;297.60;92.60;;;;;;;-0.79;88.69;99502.38;103404;1319;139094;-85
2021/12/14 08:13:08;;;;;;;289.70;87.30;;;;;;;-0.75;88.32;99499.29;103553;1325;25348;-85
2021/12/14 08:15:45;;;;;;;289.10;88.80;;;;;;;-0.71;88.39;99495.88;103440;1319;25240;-85
2021/12/14 08:18:27;;;;;;;291.50;90.30;;;;;;;-0.69;88.01;99493.96;103677;1319;138608;-85
2021/12/14 08:20:58;;;;;;;318.90;92.10;;;;;;;-0.69;88.22;99491.95;103460;1321;30775;-85
2021/12/14 08:23:30;;;;;;;323.80;95.10;;;;;;;-0.62;88.52;99486.97;103636;1316;139071;-85
2021/12/14 08:26:11;;;;;;;296.60;89.50;;;;;;;-0.52;88.39;99479.83;103495;1321;22576;-85
2021/12/14 08:28:51;;;;;;;295.60;85.10;;;;;;;-0.44;87.85;99477.08;103450;1325;138148;-85
2021/12/14 08:31:21;;;;;;;277.90;80.10;;;;;;;-0.40;87.89;99473.41;103329;1325;30228;-85
2021/12/14 08:34:10;;;;;;;250.00;74.10;;;;;;;-0.33;87.95;99474.09;103470;1325;24224;-85
2021/12/14 08:36:43;;;;;;;238.90;71.30;;;;;;;-0.26;87.90;99473.17;103315;1322;138394;-86
2021/12/14 08:39:29;;;;;;;208.60;66.40;;;;;;;-0.18;88.22;99473.30;103475;1324;22705;-86
2021/12/14 08:42:34;;;;;;;190.50;63.40;;;;;;;-0.05;88.48;99472.92;103197;1325;138021;-85
2021/12/14 08:45:26;;;;;;;216.10;70.50;;;;;;;0.07;88.48;99476.55;103587;1323;25554;-85
2021/12/14 08:48:05;;;;;;;217.30;70.60;;;;;;;0.09;87.47;99472.84;103482;1319;138445;-85
2021/12/14 08:50:35;;;;;;;;;;;;;;;0.06;87.59;99467.34;103490;1319;22565;-85
2021/12/14 08:53:02;;;;;;;;;;;;;;;0.07;87.61;99465.65;103510;1319;124828;-85
2021/12/14 08:55:32;;;;;;;187.40;61.10;;;;;;;0.10;87.17;99465.73;103432;1323;25234;-85
2021/12/14 08:58:00;;;;;;;182.10;60.00;;;;;;;0.11;87.21;99467.42;103632;1319;26517;-85
2021/12/14 09:00:33;;;;;;;201.10;68.40;;;;;;;0.14;87.61;99466.68;102961;1322;137905;-84
2021/12/14 09:03:01;;;;;;;188.70;63.30;;;;;;;0.21;87.52;99464.45;103171;1325;22648;-85
2021/12/14 09:05:37;;;;;;;221.10;66.80;;;;;;;0.21;87.56;99466.08;103302;1323;138131;-85
2021/12/14 09:08:05;;;;;;;221.30;66.30;;;;;;;0.31;88.03;99467.56;103553;1319;26504;-85
2021/12/14 09:10:35;;;;;;;218.00;67.50;;;;;;;0.40;87.70;99460.76;103261;1326;138827;-86
2021/12/14 09:13:06;;;;;;;198.90;63.40;;;;;;;0.45;87.49;99459.54;103761;1319;22812;-85
2021/12/14 09:15:42;;;;;;;192.30;61.30;;;;;;;0.46;87.06;99464.25;103403;1319;25453;-85
2021/12/14 09:18:11;;;;;;;193.90;63.40;;;;;;;0.42;86.58;99471.42;103256;1318;138957;-85
2021/12/14 09:20:44;;;;;;;212.30;66.20;;;;;;;0.40;86.78;99471.83;103242;1325;22726;-85
2021/12/14 09:23:19;;;;;;;215.30;66.80;;;;;;;0.42;86.78;99468.81;103141;1319;138429;-85
2021/12/14 09:25:48;;;;;;;194.60;62.30;;;;;;;0.45;86.56;99467.56;103218;1318;22614;-85
2021/12/14 09:28:16;;;;;;;192.20;61.20;;;;;;;0.49;86.78;99467.41;103227;1317;138288;-85
2021/12/14 09:30:48;;;;;;;195.20;63.40;;;;;;;0.50;86.52;99461.21;103538;1319;24353;-85
2021/12/14 09:33:16;;;;;;;200.60;63.30;;;;;;;0.50;86.73;99459.20;103438;1319;22604;-85
2021/12/14 09:35:46;;;;;;;205.70;64.50;;;;;;;0.57;87.17;99453.39;103821;1318;138017;-86
2021/12/14 09:38:24;;;;;;;198.10;62.00;;;;;;;0.66;87.27;99442.22;104377;1319;22663;-86
2021/12/14 09:40:55;;;;;;;212.20;67.50;;;;;;;0.75;86.92;99438.23;103867;1319;138321;-86
2021/12/14 09:43:23;;;;;;;236.80;75.10;;;;;;;0.86;87.27;99441.31;103982;1322;23112;-86
2021/12/14 09:45:55;;;;;;;263.30;80.90;;;;;;;0.94;87.11;99438.98;103943;1316;22602;-86
2021/12/14 09:48:27;;;;;;;264.20;77.60;;;;;;;0.99;86.84;99441.72;103649;1318;137720;-86
2021/12/14 09:51:12;;;;;;;286.50;84.20;;;;;;;1.00;86.35;99445.59;103775;1318;25259;-84
2021/12/14 09:53:43;;;;;;;283.00;84.00;;;;;;;1.01;86.32;99440.42;103491;1319;138548;-87
2021/12/14 09:56:14;;;;;;;291.80;88.00;;;;;;;1.05;86.47;99439.83;103938;1325;25402;-85
2021/12/14 09:58:48;;;;;;;245.00;77.30;;;;;;;1.10;86.11;99437.15;103284;1319;137908;-83
2021/12/14 10:01:21;;;;;;;255.90;78.30;;;;;;;1.14;86.19;99428.73;103300;1318;22681;-87
2021/12/14 10:03:52;;;;;;;282.10;85.80;;;;;;;1.15;85.82;99428.23;103389;1320;22572;-88
2021/12/14 10:06:25;;;;;;;302.70;88.90;;;;;;;1.17;86.04;99424.84;103351;1316;137783;-87
2021/12/14 10:09:02;;;;;;;297.10;88.10;;;;;;;1.18;85.81;99422.90;103520;1319;22615;-88
2021/12/14 10:12:48;;;;;;;275.00;84.40;;;;;;;1.21;85.82;99417.81;103094;1319;138057;-85
2021/12/14 10:14:47;;;;;;;272.80;83.10;;;;;;;1.24;85.85;99415.29;103550;1319;25320;-85
2021/12/14 10:17:16;;;;;;;269.40;83.10;;;;;;;1.25;85.66;99420.39;103336;1318;137747;-86
2021/12/14 10:19:44;;;;;;;275.10;86.20;;;;;;;1.25;85.53;99423.08;103520;1318;22736;-83
2021/12/14 10:22:24;;;;;;;283.80;82.40;;;;;;;1.26;85.69;99421.57;103299;1316;137883;-89
2021/12/14 10:24:57;;;;;;;279.90;84.60;;;;;;;1.29;85.45;99426.95;103425;1322;25441;-86
2021/12/14 10:27:30;;;;;;;286.50;85.70;;;;;;;1.25;84.74;99426.27;103220;1324;22706;-86
2021/12/14 10:29:59;;;;;;;269.40;82.10;;;;;;;1.21;84.97;99422.28;103156;1317;138525;-87
2021/12/14 10:32:31;;;;;;;272.00;80.90;;;;;;;1.25;85.45;99417.74;103313;1316;22659;-88
2021/12/14 10:35:04;;;;;;;264.90;79.80;;;;;;;1.26;85.30;99413.98;102797;1322;137908;-89
2021/12/14 10:38:07;;;;;;;289.50;86.40;;;;;;;1.29;85.37;99412.33;103148;1319;22568;-85
2021/12/14 10:43:25;;;;;;;257.50;79.30;;;;;;;1.40;85.46;99412.48;103019;1319;22603;-87
2021/12/14 10:46:03;;;;;;;263.10;77.70;;;;;;;1.41;85.08;99413.04;103166;1318;22591;-87
2021/12/14 10:48:35;;;;;;;279.40;83.50;;;;;;;1.43;85.15;99410.33;103161;1318;137937;-86
2021/12/14 10:51:06;;;;;;;255.00;80.60;;;;;;;1.43;85.16;99408.69;103204;1324;25375;-86
2021/12/14 10:53:34;;;;;;;282.90;85.10;;;;;;;1.48;85.49;99401.75;103814;1319;138501;-86
2021/12/14 10:56:09;;;;;;;263.90;82.30;;;;;;;1.53;85.49;99402.48;103836;1319;22827;-85
2021/12/14 10:58:37;;;;;;;237.60;76.00;;;;;;;1.62;85.55;99400.91;103727;1323;138212;-84
2021/12/14 11:01:10;;;;;;;222.40;70.50;;;;;;;1.67;85.13;99399.24;103867;1319;22646;-85
2021/12/14 11:03:44;;;;;;;209.50;70.40;;;;;;;1.72;85.18;99393.93;103871;1321;22631;-85
2021/12/14 11:06:21;;;;;;;211.40;71.70;;;;;;;1.78;85.06;99392.64;103373;1318;137641;-85
2021/12/14 11:09:39;;;;;;;201.00;62.80;;;;;;;1.82;84.87;99397.61;103444;1318;24423;-85
2021/12/14 11:11:52;;;;;;;126.20;42.00;;;;;;;1.86;84.88;99398.77;103237;1318;138342;-84
2021/12/14 11:14:25;;;;;;;169.10;57.90;;;;;;;1.92;84.85;99397.23;103577;1316;31585;-84
2021/12/14 11:19:51;;;;;;;173.60;57.20;;;;;;;1.96;84.45;99389.93;103630;1319;22600;-84
2021/12/14 11:22:22;;;;;;;150.40;53.30;;;;;;;1.98;84.54;99384.73;103261;1319;138702;-83
2021/12/14 11:25:17;;;;;;;155.00;53.20;;;;;;;2.00;84.61;99384.36;103358;1322;32106;-84
2021/12/14 11:27:55;;;;;;;147.90;51.60;;;;;;;2.04;84.32;99375.64;103709;1316;22605;-84
2021/12/14 11:30:37;;;;;;;145.20;53.20;;;;;;;2.09;84.31;99370.44;103466;1323;138627;-83
2021/12/14 11:33:18;;;;;;;130.60;49.40;;;;;;;2.13;84.40;99369.15;103406;1322;22590;-83
2021/12/14 11:35:54;;;;;;;133.70;45.90;;;;;;;2.16;84.34;99369.66;103171;1326;137613;-83
2021/12/14 11:38:40;;;;;;;123.00;46.90;;;;;;;2.17;84.27;99367.94;103449;1318;22618;-83
2021/12/14 11:41:35;;;;;;;123.90;41.80;;;;;;;2.14;84.06;99368.86;103444;1319;137632;-83
2021/12/14 11:44:47;;;;;;;80.70;30.80;;;;;;;2.08;83.78;99370.91;103308;1324;22712;-83
2021/12/14 11:50:30;;;;;;;119.10;41.30;;;;;;;2.03;84.33;99373.05;103354;1319;22622;-84
2021/12/14 11:53:13;;;;;;;130.60;47.20;;;;;;;2.02;84.19;99369.59;103459;1316;138511;-83
2021/12/14 11:55:45;;;;;;;130.80;43.30;;;;;;;1.98;84.03;99370.60;103565;1319;31870;-83
2021/12/14 11:58:37;;;;;;;127.00;47.50;;;;;;;1.97;84.18;99374.09;103515;1316;22599;-83
2021/12/14 12:01:12;;;;;;;121.60;43.10;;;;;;;1.96;84.18;99368.73;103241;1319;22590;-84
2021/12/14 12:03:59;;;;;;;121.80;42.40;;;;;;;1.95;84.30;99361.73;103316;1319;23503;-84
2021/12/14 12:06:46;;;;;;;134.20;48.20;;;;;;;1.94;84.17;99363.85;103480;1319;137694;-82
2021/12/14 12:09:32;;;;;;;119.70;43.80;;;;;;;1.88;84.07;99362.85;103222;1316;22599;-81
2021/12/14 12:12:16;;;;;;;105.50;38.30;;;;;;;1.83;84.29;99368.44;103550;1316;137805;-82
2021/12/14 12:14:48;;;;;;;105.00;38.60;;;;;;;1.78;84.40;99368.25;103634;1319;25384;-82
2021/12/14 12:17:36;;;;;;;100.80;38.30;;;;;;;1.75;84.51;99367.05;103124;1318;139167;-84
2021/12/14 12:20:25;;;;;;;92.10;36.10;;;;;;;1.74;84.79;99362.62;103210;1322;22590;-82
2021/12/14 12:22:57;;;;;;;95.60;38.20;;;;;;;1.68;84.78;99360.70;103338;1319;137677;-82
2021/12/14 12:25:39;;;;;;;96.30;39.10;;;;;;;1.66;84.87;99362.58;103573;1318;22616;-82
2021/12/14 12:28:25;;;;;;;84.70;34.00;;;;;;;1.64;84.95;99366.19;103368;1319;22656;-82